sensor_id;sensor_type;location;lat;lon;timestamp;pressure;altitude;pressure_sealevel;temperature;humidity
44297;BME280;51842;47.450;8.654;2023-02-26T00:01:47;94706.97;;;-0.76;86.43
44297;BME280;51842;47.450;8.654;2023-02-26T00:04:14;94702.69;;;-0.70;86.19
44297;BME280;51842;47.450;8.654;2023-02-26T00:06:43;94710.09;;;-0.67;85.06
44297;BME280;51842;47.450;8.654;2023-02-26T00:09:18;94706.25;;;-0.64;84.23
44297;BME280;51842;47.450;8.654;2023-02-26T00:11:45;94709.91;;;-0.65;84.06
44297;BME280;51842;47.450;8.654;2023-02-26T00:14:15;94705.47;;;-0.65;82.92
44297;BME280;51842;47.450;8.654;2023-02-26T00:19:40;94703.13;;;-0.73;80.99
44297;BME280;51842;47.450;8.654;2023-02-26T00:22:06;94706.75;;;-0.74;81.27
44297;BME280;51842;47.450;8.654;2023-02-26T00:24:35;94712.00;;;-0.74;80.72
44297;BME280;51842;47.450;8.654;2023-02-26T00:27:01;94711.19;;;-0.75;82.22
44297;BME280;51842;47.450;8.654;2023-02-26T00:29:31;94701.72;;;-0.76;81.17
44297;BME280;51842;47.450;8.654;2023-02-26T00:32:00;94707.38;;;-0.79;81.30
44297;BME280;51842;47.450;8.654;2023-02-26T00:34:32;94707.44;;;-0.85;79.79
44297;BME280;51842;47.450;8.654;2023-02-26T00:37:30;94707.03;;;-0.82;80.51
44297;BME280;51842;47.450;8.654;2023-02-26T00:40:45;94714.66;;;-0.81;80.26
44297;BME280;51842;47.450;8.654;2023-02-26T00:43:36;94717.66;;;-0.77;80.83
44297;BME280;51842;47.450;8.654;2023-02-26T00:51:58;94723.72;;;-0.83;81.01
44297;BME280;51842;47.450;8.654;2023-02-26T00:54:29;94729.03;;;-0.90;79.91
44297;BME280;51842;47.450;8.654;2023-02-26T00:56:58;94722.78;;;-0.89;79.65
44297;BME280;51842;47.450;8.654;2023-02-26T00:59:25;94722.16;;;-0.91;80.22
44297;BME280;51842;47.450;8.654;2023-02-26T01:01:52;94722.59;;;-0.94;80.25
44297;BME280;51842;47.450;8.654;2023-02-26T01:04:22;94726.19;;;-0.88;80.65
44297;BME280;51842;47.450;8.654;2023-02-26T01:06:57;94717.97;;;-0.92;81.23
44297;BME280;51842;47.450;8.654;2023-02-26T01:09:36;94715.88;;;-0.83;80.56
44297;BME280;51842;47.450;8.654;2023-02-26T01:12:11;94715.16;;;-0.90;80.82
44297;BME280;51842;47.450;8.654;2023-02-26T01:14:41;94715.88;;;-0.83;80.87
44297;BME280;51842;47.450;8.654;2023-02-26T01:17:55;94710.28;;;-0.87;81.14
44297;BME280;51842;47.450;8.654;2023-02-26T01:20:56;94711.44;;;-0.83;81.10
44297;BME280;51842;47.450;8.654;2023-02-26T01:23:39;94709.50;;;-0.87;81.67
44297;BME280;51842;47.450;8.654;2023-02-26T01:26:26;94711.50;;;-0.89;82.86
44297;BME280;51842;47.450;8.654;2023-02-26T01:28:54;94703.06;;;-0.91;84.36
44297;BME280;51842;47.450;8.654;2023-02-26T01:38:16;94693.91;;;-1.01;87.99
44297;BME280;51842;47.450;8.654;2023-02-26T01:41:49;94696.03;;;-1.16;88.82
44297;BME280;51842;47.450;8.654;2023-02-26T01:49:56;94708.94;;;-1.21;90.30
44297;BME280;51842;47.450;8.654;2023-02-26T01:55:24;94711.56;;;-1.21;90.71
44297;BME280;51842;47.450;8.654;2023-02-26T01:57:58;94711.19;;;-1.25;91.06
44297;BME280;51842;47.450;8.654;2023-02-26T02:00:31;94719.88;;;-1.31;91.00
44297;BME280;51842;47.450;8.654;2023-02-26T02:02:57;94707.44;;;-1.35;90.94
44297;BME280;51842;47.450;8.654;2023-02-26T02:05:51;94712.47;;;-1.34;92.14
44297;BME280;51842;47.450;8.654;2023-02-26T02:08:20;94706.75;;;-1.24;92.28
44297;BME280;51842;47.450;8.654;2023-02-26T02:10:55;94706.75;;;-1.24;92.36
44297;BME280;51842;47.450;8.654;2023-02-26T02:26:16;94704.75;;;-1.22;93.01
44297;BME280;51842;47.450;8.654;2023-02-26T02:33:00;94716.00;;;-1.22;88.74
44297;BME280;51842;47.450;8.654;2023-02-26T02:35:49;94712.22;;;-1.32;82.52
44297;BME280;51842;47.450;8.654;2023-02-26T02:38:37;94715.69;;;-1.38;75.20
44297;BME280;51842;47.450;8.654;2023-02-26T02:41:21;94711.25;;;-1.38;75.51
44297;BME280;51842;47.450;8.654;2023-02-26T02:43:59;94712.94;;;-1.44;72.97
44297;BME280;51842;47.450;8.654;2023-02-26T02:46:38;94707.47;;;-1.42;75.17
44297;BME280;51842;47.450;8.654;2023-02-26T02:49:24;94718.41;;;-1.52;72.62
44297;BME280;51842;47.450;8.654;2023-02-26T02:52:12;94715.81;;;-1.58;72.92
44297;BME280;51842;47.450;8.654;2023-02-26T02:55:11;94714.59;;;-1.56;74.29
44297;BME280;51842;47.450;8.654;2023-02-26T02:58:27;94715.81;;;-1.58;74.64
44297;BME280;51842;47.450;8.654;2023-02-26T03:01:11;94714.81;;;-1.57;74.00
44297;BME280;51842;47.450;8.654;2023-02-26T03:04:09;94726.09;;;-1.64;72.93
44297;BME280;51842;47.450;8.654;2023-02-26T03:06:42;94716.28;;;-1.68;74.30
44297;BME280;51842;47.450;8.654;2023-02-26T03:09:14;94725.72;;;-1.67;73.32
44297;BME280;51842;47.450;8.654;2023-02-26T03:11:40;94727.72;;;-1.63;73.26
44297;BME280;51842;47.450;8.654;2023-02-26T03:14:09;94722.53;;;-1.69;73.36
44297;BME280;51842;47.450;8.654;2023-02-26T03:17:26;94729.13;;;-1.67;74.46
44297;BME280;51842;47.450;8.654;2023-02-26T03:23:24;94732.97;;;-1.69;74.06
44297;BME280;51842;47.450;8.654;2023-02-26T03:26:35;94722.34;;;-1.74;73.44
44297;BME280;51842;47.450;8.654;2023-02-26T03:29:41;94725.13;;;-1.76;73.97
44297;BME280;51842;47.450;8.654;2023-02-26T03:38:46;94721.88;;;-2.03;74.52
44297;BME280;51842;47.450;8.654;2023-02-26T03:44:33;94729.28;;;-2.00;76.08
44297;BME280;51842;47.450;8.654;2023-02-26T03:47:09;94729.28;;;-2.00;76.16
44297;BME280;51842;47.450;8.654;2023-02-26T03:50:07;94727.91;;;-2.09;76.02
44297;BME280;51842;47.450;8.654;2023-02-26T03:52:42;94732.34;;;-2.10;76.40
44297;BME280;51842;47.450;8.654;2023-02-26T03:55:24;94729.91;;;-2.11;78.68
44297;BME280;51842;47.450;8.654;2023-02-26T03:57:52;94734.34;;;-2.12;79.34
44297;BME280;51842;47.450;8.654;2023-02-26T04:00:19;94743.38;;;-2.14;78.90
44297;BME280;51842;47.450;8.654;2023-02-26T04:03:17;94752.81;;;-2.20;80.02
44297;BME280;51842;47.450;8.654;2023-02-26T04:05:51;94753.22;;;-2.23;80.42
44297;BME280;51842;47.450;8.654;2023-02-26T04:08:20;94754.25;;;-2.24;80.60
44297;BME280;51842;47.450;8.654;2023-02-26T04:11:01;94753.44;;;-2.24;82.86
44297;BME280;51842;47.450;8.654;2023-02-26T04:13:34;94762.28;;;-2.19;81.77
44297;BME280;51842;47.450;8.654;2023-02-26T04:16:00;94758.88;;;-2.19;82.63
44297;BME280;51842;47.450;8.654;2023-02-26T04:18:29;94754.03;;;-2.16;82.93
44297;BME280;51842;47.450;8.654;2023-02-26T04:20:55;94748.44;;;-2.19;83.54
44297;BME280;51842;47.450;8.654;2023-02-26T04:23:27;94759.66;;;-2.19;84.57
44297;BME280;51842;47.450;8.654;2023-02-26T04:25:59;94753.22;;;-2.23;84.41
44297;BME280;51842;47.450;8.654;2023-02-26T04:28:30;94748.03;;;-2.29;85.11
44297;BME280;51842;47.450;8.654;2023-02-26T04:30:56;94742.03;;;-2.37;85.20
44297;BME280;51842;47.450;8.654;2023-02-26T04:33:25;94750.69;;;-2.43;85.69
44297;BME280;51842;47.450;8.654;2023-02-26T04:35:59;94750.50;;;-2.41;86.16
44297;BME280;51842;47.450;8.654;2023-02-26T04:38:31;94759.53;;;-2.44;87.16
44297;BME280;51842;47.450;8.654;2023-02-26T04:40:57;94750.91;;;-2.44;87.10
44297;BME280;51842;47.450;8.654;2023-02-26T04:43:32;94762.13;;;-2.44;87.22
44297;BME280;51842;47.450;8.654;2023-02-26T04:45:58;94759.69;;;-2.39;86.35
44297;BME280;51842;47.450;8.654;2023-02-26T04:48:33;94765.28;;;-2.35;86.31
44297;BME280;51842;47.450;8.654;2023-02-26T04:50:59;94764.31;;;-2.34;85.69
44297;BME280;51842;47.450;8.654;2023-02-26T04:53:25;94770.09;;;-2.32;85.98
44297;BME280;51842;47.450;8.654;2023-02-26T04:55:51;94763.72;;;-2.36;86.43
44297;BME280;51842;47.450;8.654;2023-02-26T04:58:20;94764.09;;;-2.33;85.63
44297;BME280;51842;47.450;8.654;2023-02-26T05:00:51;94774.53;;;-2.33;85.77
44297;BME280;51842;47.450;8.654;2023-02-26T05:03:22;94772.31;;;-2.29;85.26
44297;BME280;51842;47.450;8.654;2023-02-26T05:05:48;94775.75;;;-2.42;85.08
44297;BME280;51842;47.450;8.654;2023-02-26T05:08:14;94777.56;;;-2.42;86.56
44297;BME280;51842;47.450;8.654;2023-02-26T05:10:43;94775.34;;;-2.45;85.73
44297;BME280;51842;47.450;8.654;2023-02-26T05:13:12;94770.94;;;-2.38;86.66
44297;BME280;51842;47.450;8.654;2023-02-26T05:15:46;94774.16;;;-2.43;86.97
44297;BME280;51842;47.450;8.654;2023-02-26T05:18:12;94776.75;;;-2.43;85.16
44297;BME280;51842;47.450;8.654;2023-02-26T05:20:41;94777.78;;;-2.44;83.21
44297;BME280;51842;47.450;8.654;2023-02-26T05:23:07;94775.56;;;-2.40;83.99
44297;BME280;51842;47.450;8.654;2023-02-26T05:25:32;94774.34;;;-2.38;84.20
44297;BME280;51842;47.450;8.654;2023-02-26T05:28:04;94772.72;;;-2.32;85.03
44297;BME280;51842;47.450;8.654;2023-02-26T05:30:30;94781.56;;;-2.40;83.87
44297;BME280;51842;47.450;8.654;2023-02-26T05:32:55;94771.53;;;-2.43;82.34
44297;BME280;51842;47.450;8.654;2023-02-26T05:35:25;94776.75;;;-2.43;82.45
44297;BME280;51842;47.450;8.654;2023-02-26T05:37:53;94792.63;;;-2.51;80.97
44297;BME280;51842;47.450;8.654;2023-02-26T05:40:23;94782.19;;;-2.44;81.06
44297;BME280;51842;47.450;8.654;2023-02-26T05:42:52;94787.00;;;-2.41;81.62
44297;BME280;51842;47.450;8.654;2023-02-26T05:45:26;94789.63;;;-2.41;82.39
44297;BME280;51842;47.450;8.654;2023-02-26T05:48:01;94781.38;;;-2.45;80.82
44297;BME280;51842;47.450;8.654;2023-02-26T05:50:30;94792.22;;;-2.48;80.74
44297;BME280;51842;47.450;8.654;2023-02-26T05:52:56;94787.00;;;-2.48;79.12
44297;BME280;51842;47.450;8.654;2023-02-26T05:55:22;94780.59;;;-2.52;76.84
44297;BME280;51842;47.450;8.654;2023-02-26T05:58:00;94797.03;;;-2.65;75.58
44297;BME280;51842;47.450;8.654;2023-02-26T06:00:29;94792.44;;;-2.63;76.13
44297;BME280;51842;47.450;8.654;2023-02-26T06:02:55;94801.47;;;-2.65;75.17
44297;BME280;51842;47.450;8.654;2023-02-26T06:05:21;94796.66;;;-2.68;75.16
44297;BME280;51842;47.450;8.654;2023-02-26T06:07:47;94795.88;;;-2.75;74.76
44297;BME280;51842;47.450;8.654;2023-02-26T06:10:19;94808.28;;;-2.77;74.30
44297;BME280;51842;47.450;8.654;2023-02-26T06:12:48;94801.66;;;-2.80;75.14
44297;BME280;51842;47.450;8.654;2023-02-26T06:15:14;94809.47;;;-2.87;75.56
44297;BME280;51842;47.450;8.654;2023-02-26T06:17:43;94808.28;;;-2.91;75.90
44297;BME280;51842;47.450;8.654;2023-02-26T06:20:10;94811.69;;;-2.90;76.13
44297;BME280;51842;47.450;8.654;2023-02-26T06:22:39;94820.91;;;-2.94;75.85
44297;BME280;51842;47.450;8.654;2023-02-26T06:25:12;94817.88;;;-2.98;75.63
44297;BME280;51842;47.450;8.654;2023-02-26T06:27:38;94814.88;;;-3.08;73.80
44297;BME280;51842;47.450;8.654;2023-02-26T06:30:05;94830.91;;;-3.11;75.32
44297;BME280;51842;47.450;8.654;2023-02-26T06:32:34;94829.69;;;-3.09;76.13
44297;BME280;51842;47.450;8.654;2023-02-26T06:34:59;94844.94;;;-3.19;76.15
44297;BME280;51842;47.450;8.654;2023-02-26T06:37:28;94846.72;;;-3.19;76.62
44297;BME280;51842;47.450;8.654;2023-02-26T06:39:54;94843.13;;;-3.18;78.28
44297;BME280;51842;47.450;8.654;2023-02-26T06:42:20;94842.09;;;-3.17;78.26
44297;BME280;51842;47.450;8.654;2023-02-26T06:44:47;94840.50;;;-3.18;78.91
44297;BME280;51842;47.450;8.654;2023-02-26T06:47:13;94840.50;;;-3.18;79.35
44297;BME280;51842;47.450;8.654;2023-02-26T06:49:41;94834.50;;;-3.19;77.75
44297;BME280;51842;47.450;8.654;2023-02-26T06:52:07;94840.13;;;-3.15;78.29
44297;BME280;51842;47.450;8.654;2023-02-26T06:54:43;94841.72;;;-3.08;78.25
44297;BME280;51842;47.450;8.654;2023-02-26T06:57:08;94831.91;;;-2.99;78.78
44297;BME280;51842;47.450;8.654;2023-02-26T06:59:34;94841.16;;;-3.03;77.65
44297;BME280;51842;47.450;8.654;2023-02-26T07:02:00;94851.19;;;-2.93;77.41
44297;BME280;51842;47.450;8.654;2023-02-26T07:04:26;94843.59;;;-2.82;76.76
44297;BME280;51842;47.450;8.654;2023-02-26T07:06:54;94850.78;;;-2.77;77.03
44297;BME280;51842;47.450;8.654;2023-02-26T07:09:20;94849.78;;;-2.76;75.96
44297;BME280;51842;47.450;8.654;2023-02-26T07:11:46;94846.38;;;-2.76;76.54
44297;BME280;51842;47.450;8.654;2023-02-26T07:14:11;94851.00;;;-2.78;77.08
44297;BME280;51842;47.450;8.654;2023-02-26T07:16:37;94852.38;;;-2.89;75.56
44297;BME280;51842;47.450;8.654;2023-02-26T07:19:03;94853.59;;;-2.85;75.67
44297;BME280;51842;47.450;8.654;2023-02-26T07:21:29;94839.56;;;-2.84;75.46
44297;BME280;51842;47.450;8.654;2023-02-26T07:23:55;94855.59;;;-2.87;75.21
44297;BME280;51842;47.450;8.654;2023-02-26T07:26:21;94851.19;;;-2.87;75.20
44297;BME280;51842;47.450;8.654;2023-02-26T07:28:50;94846.59;;;-2.91;74.50
44297;BME280;51842;47.450;8.654;2023-02-26T07:31:16;94854.59;;;-2.93;75.13
44297;BME280;51842;47.450;8.654;2023-02-26T07:33:42;94860.75;;;-3.07;73.48
44297;BME280;51842;47.450;8.654;2023-02-26T07:36:08;94856.78;;;-3.03;75.19
44297;BME280;51842;47.450;8.654;2023-02-26T07:38:37;94859.00;;;-3.00;74.75
44297;BME280;51842;47.450;8.654;2023-02-26T07:41:03;94843.34;;;-3.13;73.83
44297;BME280;51842;47.450;8.654;2023-02-26T07:43:29;94858.53;;;-3.17;73.55
44297;BME280;51842;47.450;8.654;2023-02-26T07:45:55;94862.19;;;-2.98;74.56
44297;BME280;51842;47.450;8.654;2023-02-26T07:48:27;94870.63;;;-2.89;73.06
44297;BME280;51842;47.450;8.654;2023-02-26T07:50:54;94866.41;;;-2.97;71.75
44297;BME280;51842;47.450;8.654;2023-02-26T07:53:23;94878.03;;;-3.06;71.33
44297;BME280;51842;47.450;8.654;2023-02-26T07:55:49;94871.25;;;-2.81;71.93
44297;BME280;51842;47.450;8.654;2023-02-26T07:58:16;94854.00;;;-2.62;69.28
44297;BME280;51842;47.450;8.654;2023-02-26T08:00:42;94867.03;;;-2.75;69.67
44297;BME280;51842;47.450;8.654;2023-02-26T08:03:10;94871.88;;;-2.72;69.63
44297;BME280;51842;47.450;8.654;2023-02-26T08:05:36;94865.03;;;-2.26;68.06
44297;BME280;51842;47.450;8.654;2023-02-26T08:08:03;94874.47;;;-2.32;69.09
44297;BME280;51842;47.450;8.654;2023-02-26T08:10:36;94868.25;;;-2.58;68.22
44297;BME280;51842;47.450;8.654;2023-02-26T08:13:03;94875.84;;;-2.76;69.17
44297;BME280;51842;47.450;8.654;2023-02-26T08:15:33;94864.44;;;-2.75;69.64
44297;BME280;51842;47.450;8.654;2023-02-26T08:18:01;94851.19;;;-2.93;70.08
44297;BME280;51842;47.450;8.654;2023-02-26T08:20:27;94848.56;;;-2.93;70.85
44297;BME280;51842;47.450;8.654;2023-02-26T08:22:53;94853.78;;;-2.87;69.00
44297;BME280;51842;47.450;8.654;2023-02-26T08:25:19;94876.25;;;-2.79;69.27
44297;BME280;51842;47.450;8.654;2023-02-26T08:27:45;94861.03;;;-2.75;70.44
44297;BME280;51842;47.450;8.654;2023-02-26T08:30:12;94873.22;;;-2.96;70.04
44297;BME280;51842;47.450;8.654;2023-02-26T08:32:38;94857.63;;;-2.36;69.49
44297;BME280;51842;47.450;8.654;2023-02-26T08:35:10;94861.38;;;-1.99;68.66
44297;BME280;51842;47.450;8.654;2023-02-26T08:37:37;94860.38;;;-1.84;69.33
44297;BME280;51842;47.450;8.654;2023-02-26T08:40:07;94849.91;;;-1.78;68.66
44297;BME280;51842;47.450;8.654;2023-02-26T08:42:34;94848.56;;;-2.00;68.44
44297;BME280;51842;47.450;8.654;2023-02-26T08:45:00;94859.28;;;-1.64;70.07
44297;BME280;51842;47.450;8.654;2023-02-26T08:47:26;94859.41;;;-1.45;69.15
44297;BME280;51842;47.450;8.654;2023-02-26T08:49:52;94859.66;;;-1.60;68.70
44297;BME280;51842;47.450;8.654;2023-02-26T08:52:20;94862.69;;;-1.56;68.29
44297;BME280;51842;47.450;8.654;2023-02-26T08:54:46;94856.28;;;-1.15;68.94
44297;BME280;51842;47.450;8.654;2023-02-26T08:57:12;94856.81;;;-1.00;67.67
44297;BME280;51842;47.450;8.654;2023-02-26T08:59:43;94865.03;;;-0.97;66.91
44297;BME280;51842;47.450;8.654;2023-02-26T09:02:14;94868.38;;;-1.21;66.48
44297;BME280;51842;47.450;8.654;2023-02-26T09:04:42;94862.94;;;-1.26;66.94
44297;BME280;51842;47.450;8.654;2023-02-26T09:07:13;94875.00;;;-1.19;67.33
44297;BME280;51842;47.450;8.654;2023-02-26T09:09:39;94883.41;;;-1.68;66.64
44297;BME280;51842;47.450;8.654;2023-02-26T09:12:05;94863.59;;;-2.02;67.05
44297;BME280;51842;47.450;8.654;2023-02-26T09:14:31;94864.63;;;-2.17;66.97
44297;BME280;51842;47.450;8.654;2023-02-26T09:16:57;94869.66;;;-2.22;68.17
44297;BME280;51842;47.450;8.654;2023-02-26T09:19:23;94868.44;;;-2.26;68.75
44297;BME280;51842;47.450;8.654;2023-02-26T09:21:54;94884.31;;;-2.21;68.14
44297;BME280;51842;47.450;8.654;2023-02-26T09:24:23;94873.66;;;-2.39;66.58
44297;BME280;51842;47.450;8.654;2023-02-26T09:26:49;94888.53;;;-2.46;67.64
44297;BME280;51842;47.450;8.654;2023-02-26T09:29:15;94895.56;;;-2.53;67.63
44297;BME280;51842;47.450;8.654;2023-02-26T09:31:41;94911.00;;;-2.52;67.38
44297;BME280;51842;47.450;8.654;2023-02-26T09:34:09;94905.19;;;-2.47;67.96
44297;BME280;51842;47.450;8.654;2023-02-26T09:36:35;94908.59;;;-2.47;68.44
44297;BME280;51842;47.450;8.654;2023-02-26T09:39:02;94909.38;;;-2.60;66.97
44297;BME280;51842;47.450;8.654;2023-02-26T09:41:47;94908.16;;;-2.57;67.62
44297;BME280;51842;47.450;8.654;2023-02-26T09:44:29;94908.38;;;-2.39;65.88
44297;BME280;51842;47.450;8.654;2023-02-26T09:47:29;94908.97;;;-2.17;65.13
44297;BME280;51842;47.450;8.654;2023-02-26T09:50:36;94917.41;;;-2.48;65.22
44297;BME280;51842;47.450;8.654;2023-02-26T09:53:37;94928.44;;;-2.52;66.71
44297;BME280;51842;47.450;8.654;2023-02-26T09:56:25;94922.44;;;-2.40;65.57
44297;BME280;51842;47.450;8.654;2023-02-26T09:58:52;94900.94;;;-2.42;64.91
44297;BME280;51842;47.450;8.654;2023-02-26T10:01:56;94919.03;;;-2.40;65.95
44297;BME280;51842;47.450;8.654;2023-02-26T10:04:49;94914.34;;;-1.65;65.47
44297;BME280;51842;47.450;8.654;2023-02-26T10:13:57;94919.69;;;-0.50;60.12
44297;BME280;51842;47.450;8.654;2023-02-26T10:16:37;94925.34;;;-0.53;58.43
44297;BME280;51842;47.450;8.654;2023-02-26T10:19:18;94914.28;;;-0.30;58.99
44297;BME280;51842;47.450;8.654;2023-02-26T10:22:39;94932.25;;;0.16;57.39
44297;BME280;51842;47.450;8.654;2023-02-26T10:25:20;94919.75;;;0.37;56.10
44297;BME280;51842;47.450;8.654;2023-02-26T10:32:05;94909.59;;;0.04;56.86
44297;BME280;51842;47.450;8.654;2023-02-26T10:34:54;94926.31;;;-0.22;56.33
44297;BME280;51842;47.450;8.654;2023-02-26T10:38:00;94928.53;;;-0.51;55.85
44297;BME280;51842;47.450;8.654;2023-02-26T10:40:48;94922.09;;;-0.24;56.39
44297;BME280;51842;47.450;8.654;2023-02-26T10:43:42;94928.88;;;-0.16;59.64
44297;BME280;51842;47.450;8.654;2023-02-26T10:49:51;94920.56;;;-0.38;58.93
44297;BME280;51842;47.450;8.654;2023-02-26T10:52:26;94929.03;;;-0.11;59.36
44297;BME280;51842;47.450;8.654;2023-02-26T10:55:33;94924.25;;;0.30;57.07
44297;BME280;51842;47.450;8.654;2023-02-26T10:58:24;94921.34;;;-0.31;58.08
44297;BME280;51842;47.450;8.654;2023-02-26T11:00:54;94923.31;;;-0.01;57.16
44297;BME280;51842;47.450;8.654;2023-02-26T11:03:45;94925.09;;;0.05;57.59
44297;BME280;51842;47.450;8.654;2023-02-26T11:06:41;94925.31;;;-0.21;59.36
44297;BME280;51842;47.450;8.654;2023-02-26T11:09:38;94912.25;;;0.22;56.10
44297;BME280;51842;47.450;8.654;2023-02-26T11:14:36;94912.31;;;-0.66;56.46
44297;BME280;51842;47.450;8.654;2023-02-26T11:17:29;94938.19;;;0.05;56.49
44297;BME280;51842;47.450;8.654;2023-02-26T11:20:36;94939.94;;;0.73;57.25
44297;BME280;51842;47.450;8.654;2023-02-26T11:23:17;94922.97;;;0.57;54.74
44297;BME280;51842;47.450;8.654;2023-02-26T11:25:45;94930.19;;;0.99;55.77
44297;BME280;51842;47.450;8.654;2023-02-26T11:28:49;94920.03;;;1.02;57.63
44297;BME280;51842;47.450;8.654;2023-02-26T11:31:32;94926.88;;;0.30;55.73
44297;BME280;51842;47.450;8.654;2023-02-26T11:34:04;94915.34;;;0.12;57.02
44297;BME280;51842;47.450;8.654;2023-02-26T11:36:39;94926.09;;;-0.46;57.51
44297;BME280;51842;47.450;8.654;2023-02-26T11:39:21;94938.47;;;-0.03;56.34
44297;BME280;51842;47.450;8.654;2023-02-26T11:41:54;94935.31;;;-0.12;57.24
44297;BME280;51842;47.450;8.654;2023-02-26T11:44:41;94937.63;;;-0.29;56.47
44297;BME280;51842;47.450;8.654;2023-02-26T11:47:26;94935.84;;;-0.35;57.09
44297;BME280;51842;47.450;8.654;2023-02-26T11:50:09;94932.41;;;-0.60;56.50
44297;BME280;51842;47.450;8.654;2023-02-26T11:52:45;94936.66;;;-1.04;56.84
44297;BME280;51842;47.450;8.654;2023-02-26T11:55:58;94921.81;;;-0.72;56.56
44297;BME280;51842;47.450;8.654;2023-02-26T11:58:34;94934.06;;;-0.73;58.27
44297;BME280;51842;47.450;8.654;2023-02-26T12:01:05;94939.25;;;-0.59;57.77
44297;BME280;51842;47.450;8.654;2023-02-26T12:03:38;94946.03;;;-0.52;58.39
44297;BME280;51842;47.450;8.654;2023-02-26T12:06:21;94917.00;;;-0.43;57.16
44297;BME280;51842;47.450;8.654;2023-02-26T12:08:50;94935.91;;;-0.41;57.04
44297;BME280;51842;47.450;8.654;2023-02-26T12:12:39;94944.69;;;-0.99;58.37
44297;BME280;51842;47.450;8.654;2023-02-26T12:15:48;94939.91;;;-1.09;58.07
44297;BME280;51842;47.450;8.654;2023-02-26T12:29:36;94959.34;;;-0.98;59.41
44297;BME280;51842;47.450;8.654;2023-02-26T12:36:02;94957.66;;;-0.79;58.83
44297;BME280;51842;47.450;8.654;2023-02-26T12:42:44;94945.25;;;-0.90;58.60
44297;BME280;51842;47.450;8.654;2023-02-26T13:06:54;94950.28;;;-0.57;60.51
44297;BME280;51842;47.450;8.654;2023-02-26T13:10:00;94962.16;;;-0.55;60.55
44297;BME280;51842;47.450;8.654;2023-02-26T13:21:53;94964.41;;;-1.10;62.79
44297;BME280;51842;47.450;8.654;2023-02-26T13:24:59;94962.84;;;-1.18;62.92
44297;BME280;51842;47.450;8.654;2023-02-26T13:27:36;94953.38;;;-1.12;63.56
44297;BME280;51842;47.450;8.654;2023-02-26T13:30:29;94958.81;;;-1.20;63.47
44297;BME280;51842;47.450;8.654;2023-02-26T13:32:59;94955.81;;;-1.17;63.71
44297;BME280;51842;47.450;8.654;2023-02-26T13:35:37;94956.94;;;-1.00;62.93
44297;BME280;51842;47.450;8.654;2023-02-26T13:44:48;94960.59;;;-1.07;62.98
44297;BME280;51842;47.450;8.654;2023-02-26T13:50:59;94954.44;;;-0.75;63.28
44297;BME280;51842;47.450;8.654;2023-02-26T13:56:22;94959.50;;;-0.86;66.57
44297;BME280;51842;47.450;8.654;2023-02-26T14:02:33;94943.88;;;-1.00;67.90
44297;BME280;51842;47.450;8.654;2023-02-26T14:05:00;94980.63;;;-0.43;68.84
44297;BME280;51842;47.450;8.654;2023-02-26T14:11:04;94955.28;;;-0.94;70.43
44297;BME280;51842;47.450;8.654;2023-02-26T14:13:40;94962.44;;;-0.70;69.65
44297;BME280;51842;47.450;8.654;2023-02-26T14:16:33;94959.41;;;-0.66;68.59
44297;BME280;51842;47.450;8.654;2023-02-26T14:22:00;94971.25;;;-1.02;68.95
44297;BME280;51842;47.450;8.654;2023-02-26T14:24:38;94958.91;;;-0.88;69.79
44297;BME280;51842;47.450;8.654;2023-02-26T14:27:39;94980.50;;;-1.06;68.70
44297;BME280;51842;47.450;8.654;2023-02-26T14:33:17;94973.56;;;-1.39;70.07
44297;BME280;51842;47.450;8.654;2023-02-26T14:35:51;94976.94;;;-1.19;69.83
44297;BME280;51842;47.450;8.654;2023-02-26T14:38:37;94974.31;;;-1.19;67.25
44297;BME280;51842;47.450;8.654;2023-02-26T14:41:30;94968.44;;;-1.07;66.62
44297;BME280;51842;47.450;8.654;2023-02-26T14:44:24;94961.81;;;-1.03;61.96
44297;BME280;51842;47.450;8.654;2023-02-26T14:47:00;94967.25;;;-0.66;60.67
44297;BME280;51842;47.450;8.654;2023-02-26T14:49:39;94962.44;;;-0.38;59.62
44297;BME280;51842;47.450;8.654;2023-02-26T15:05:38;94948.03;;;0.10;57.73
44297;BME280;51842;47.450;8.654;2023-02-26T15:24:12;94987.31;;;-0.22;58.59
44297;BME280;51842;47.450;8.654;2023-02-26T15:26:53;94984.66;;;-0.15;59.06
44297;BME280;51842;47.450;8.654;2023-02-26T15:29:36;94994.16;;;-0.21;59.40
44297;BME280;51842;47.450;8.654;2023-02-26T15:32:27;94990.06;;;-0.42;59.51
44297;BME280;51842;47.450;8.654;2023-02-26T15:35:09;94992.06;;;-0.37;59.75
44297;BME280;51842;47.450;8.654;2023-02-26T15:37:38;94993.31;;;-0.15;60.56
44297;BME280;51842;47.450;8.654;2023-02-26T15:40:06;95020.25;;;-0.39;59.46
44297;BME280;51842;47.450;8.654;2023-02-26T15:42:40;94988.69;;;-0.51;59.22
44297;BME280;51842;47.450;8.654;2023-02-26T15:45:38;94996.78;;;-0.53;59.56
44297;BME280;51842;47.450;8.654;2023-02-26T15:50:56;95013.28;;;-0.20;59.96
44297;BME280;51842;47.450;8.654;2023-02-26T15:53:34;94996.03;;;-0.35;61.44
44297;BME280;51842;47.450;8.654;2023-02-26T15:56:13;94998.41;;;-0.58;60.77
44297;BME280;51842;47.450;8.654;2023-02-26T15:58:57;95025.41;;;-0.64;62.15
44297;BME280;51842;47.450;8.654;2023-02-26T16:01:30;95016.59;;;-0.77;65.28
44297;BME280;51842;47.450;8.654;2023-02-26T16:04:02;95021.44;;;-0.80;65.98
44297;BME280;51842;47.450;8.654;2023-02-26T16:06:43;95017.06;;;-0.93;66.93
44297;BME280;51842;47.450;8.654;2023-02-26T16:09:33;95014.88;;;-1.03;65.90
44297;BME280;51842;47.450;8.654;2023-02-26T16:12:14;95010.13;;;-1.19;66.73
44297;BME280;51842;47.450;8.654;2023-02-26T16:15:00;95007.72;;;-1.34;67.55
44297;BME280;51842;47.450;8.654;2023-02-26T16:17:34;95009.50;;;-1.21;67.81
44297;BME280;51842;47.450;8.654;2023-02-26T16:20:21;95021.56;;;-1.27;68.26
44297;BME280;51842;47.450;8.654;2023-02-26T16:23:01;95021.97;;;-1.30;69.44
44297;BME280;51842;47.450;8.654;2023-02-26T16:25:45;95030.22;;;-1.33;69.57
44297;BME280;51842;47.450;8.654;2023-02-26T16:30:53;95030.06;;;-1.65;73.45
44297;BME280;51842;47.450;8.654;2023-02-26T16:33:24;95045.34;;;-1.75;74.63
44297;BME280;51842;47.450;8.654;2023-02-26T16:36:14;95041.72;;;-1.80;75.49
44297;BME280;51842;47.450;8.654;2023-02-26T16:39:17;95047.72;;;-1.87;75.98
44297;BME280;51842;47.450;8.654;2023-02-26T16:42:11;95060.19;;;-1.82;76.67
44297;BME280;51842;47.450;8.654;2023-02-26T16:47:56;95090.72;;;-1.89;76.53
44297;BME280;51842;47.450;8.654;2023-02-26T16:50:29;95087.06;;;-1.95;75.80
44297;BME280;51842;47.450;8.654;2023-02-26T16:55:33;95082.47;;;-1.93;75.13